Time;durP1;ratioP1;P1;durP2;ratioP2;P2;SDS_P1;SDS_P2;PMS_P1;PMS_P2;Temp;Humidity;BMP_temperature;BMP_pressure;BME280_temperature;BME280_humidity;BME280_pressure;Samples;Min_cycle;Max_cycle;Signal;HPM_P1;HPM_P2
2023/04/21 00:00:16;;;;;;;4.07;2.78;;;;;;;19.73;47.53;100191.06;5071934;28;20054;-74
2023/04/21 00:02:48;;;;;;;5.50;3.00;;;;;;;19.70;47.29;100183.28;5072774;28;20048;-73
2023/04/21 00:05:16;;;;;;;5.05;2.97;;;;;;;19.69;47.20;100178.88;5073257;28;20044;-74
2023/04/21 00:07:45;;;;;;;5.68;3.10;;;;;;;19.67;47.32;100180.84;5073586;28;20076;-74
2023/04/21 00:10:13;;;;;;;4.85;3.00;;;;;;;19.67;47.11;100175.44;5073014;28;20104;-73
2023/04/21 00:12:41;;;;;;;4.72;2.90;;;;;;;19.65;47.38;100175.59;5072959;28;20147;-73
2023/04/21 00:15:11;;;;;;;4.82;2.75;;;;;;;19.64;47.25;100173.03;5073412;28;20048;-75
2023/04/21 00:17:40;;;;;;;4.40;2.70;;;;;;;19.63;47.51;100171.34;5072964;28;20106;-74
2023/04/21 00:20:11;;;;;;;5.25;3.05;;;;;;;19.60;47.05;100172.50;5073241;28;20517;-74
2023/04/21 00:22:39;;;;;;;5.35;2.92;;;;;;;19.60;46.98;100172.50;5073734;28;20512;-75
2023/04/21 00:25:08;;;;;;;4.60;2.75;;;;;;;19.58;47.44;100169.06;5073497;28;20079;-74
2023/04/21 00:27:36;;;;;;;4.60;3.05;;;;;;;19.58;47.46;100171.78;5073319;28;20460;-75
2023/04/21 00:30:05;;;;;;;4.03;2.80;;;;;;;19.57;47.59;100171.94;5073069;28;20511;-74
2023/04/21 00:32:34;;;;;;;4.30;2.60;;;;;;;19.56;47.09;100170.25;5073115;28;20079;-74
2023/04/21 00:35:02;;;;;;;4.55;2.65;;;;;;;19.53;47.35;100160.56;5072730;28;20080;-74
2023/04/21 00:37:31;;;;;;;4.68;2.72;;;;;;;19.53;47.32;100165.97;5072761;28;20044;-74
2023/04/21 00:40:00;;;;;;;6.20;3.40;;;;;;;19.52;47.18;100166.13;5072910;28;20049;-75
2023/04/21 00:42:28;;;;;;;4.65;2.85;;;;;;;19.50;47.45;100165.44;5072408;28;20044;-74
2023/04/21 00:44:56;;;;;;;4.63;2.75;;;;;;;19.49;47.13;100164.53;5072391;28;20110;-74
2023/04/21 00:47:24;;;;;;;4.55;3.05;;;;;;;19.49;47.14;100166.41;5072134;28;20526;-74
2023/04/21 00:49:53;;;;;;;4.20;2.70;;;;;;;19.45;47.49;100164.00;5072295;28;20048;-75
2023/04/21 00:52:22;;;;;;;5.47;3.17;;;;;;;19.45;47.27;100169.41;5072598;28;20084;-74
2023/04/21 00:54:52;;;;;;;4.90;3.05;;;;;;;19.44;47.45;100167.72;5073592;28;20102;-74
2023/04/21 00:57:20;;;;;;;4.40;2.83;;;;;;;19.42;47.03;100169.72;5076094;28;20045;-75
2023/04/21 00:59:50;;;;;;;4.82;3.00;;;;;;;19.42;47.06;100163.47;5078554;28;20048;-75
2023/04/21 01:02:19;;;;;;;4.07;2.60;;;;;;;19.41;47.24;100169.88;5080345;28;20102;-74
2023/04/21 01:04:47;;;;;;;4.22;2.78;;;;;;;19.40;47.08;100166.34;5080771;28;20044;-74
2023/04/21 01:07:16;;;;;;;4.03;2.67;;;;;;;19.37;47.13;100172.03;5079719;28;20048;-73
2023/04/21 01:09:44;;;;;;;5.10;3.13;;;;;;;19.36;47.17;100167.63;5078931;28;20049;-75
2023/04/21 01:12:13;;;;;;;5.22;2.90;;;;;;;19.36;47.05;100172.19;5087355;28;20033;-73
2023/04/21 01:14:41;;;;;;;3.80;2.60;;;;;;;19.34;47.27;100160.66;5089500;28;20048;-75
2023/04/21 01:17:10;;;;;;;4.63;3.08;;;;;;;19.32;47.38;100158.13;5087212;28;20390;-74
2023/04/21 01:19:41;;;;;;;5.30;2.85;;;;;;;19.32;47.12;100162.69;5087496;28;20064;-74
2023/04/21 01:22:12;;;;;;;4.75;2.70;;;;;;;19.30;47.46;100159.25;5087021;28;20055;-73
2023/04/21 01:24:42;;;;;;;4.68;2.72;;;;;;;19.30;47.24;100161.94;5078191;28;20082;-73
2023/04/21 01:27:11;;;;;;;4.78;2.80;;;;;;;19.27;47.40;100155.00;5080034;28;20100;-73
2023/04/21 01:29:40;;;;;;;4.20;2.90;;;;;;;19.27;47.41;100160.41;5086342;28;20052;-73
2023/04/21 01:32:10;;;;;;;4.60;2.90;;;;;;;19.25;47.35;100153.44;5083075;28;20547;-75
2023/04/21 01:34:38;;;;;;;4.88;2.72;;;;;;;19.26;47.04;100156.00;5088942;28;20060;-75
2023/04/21 01:37:08;;;;;;;5.15;2.83;;;;;;;19.24;46.96;100149.91;5088270;28;20112;-75
2023/04/21 01:39:39;;;;;;;4.28;2.88;;;;;;;19.22;47.13;100160.03;5087509;28;20048;-76
2023/04/21 01:42:07;;;;;;;4.57;2.70;;;;;;;19.22;47.10;100151.06;5086023;28;20052;-73
2023/04/21 01:44:36;;;;;;;4.43;2.85;;;;;;;19.20;47.10;100151.19;5086449;28;20045;-75
2023/04/21 01:47:04;;;;;;;4.38;2.72;;;;;;;19.17;47.07;100146.94;5086446;28;20045;-75
2023/04/21 01:49:32;;;;;;;4.75;2.72;;;;;;;19.17;47.22;100154.19;5089350;28;20059;-75
2023/04/21 01:52:01;;;;;;;4.13;2.70;;;;;;;19.17;47.04;100149.63;5088858;28;20083;-76
2023/04/21 01:54:29;;;;;;;4.30;2.70;;;;;;;19.15;46.99;100142.69;5090026;28;20052;-75
2023/04/21 01:56:59;;;;;;;4.18;2.60;;;;;;;19.11;47.16;100146.69;5089700;28;20071;-75
2023/04/21 01:59:27;;;;;;;5.47;3.20;;;;;;;19.13;47.03;100150.09;5088462;28;20048;-75
2023/04/21 02:01:55;;;;;;;4.80;2.80;;;;;;;19.11;47.31;100144.00;5088096;28;20109;-75
2023/04/21 02:04:23;;;;;;;5.03;2.85;;;;;;;19.09;47.47;100144.13;5087518;28;20060;-75
2023/04/21 02:06:52;;;;;;;4.63;3.00;;;;;;;19.10;47.42;100153.94;5088374;28;20045;-75
2023/04/21 02:09:20;;;;;;;4.32;2.63;;;;;;;19.08;47.28;100145.13;5088053;28;20049;-75
2023/04/21 02:11:49;;;;;;;3.88;2.65;;;;;;;19.07;47.38;100153.38;5088922;28;20079;-73
2023/04/21 02:14:18;;;;;;;3.85;2.50;;;;;;;19.06;47.53;100149.84;5087510;28;20109;-74
2023/04/21 02:16:46;;;;;;;4.88;2.70;;;;;;;19.05;47.48;100150.84;5087874;28;20126;-74
2023/04/21 02:19:15;;;;;;;4.05;2.70;;;;;;;19.02;47.04;100147.59;5086364;28;20048;-74
2023/04/21 02:21:43;;;;;;;3.95;2.75;;;;;;;19.03;47.05;100152.84;5085953;28;20124;-75
2023/04/21 02:24:11;;;;;;;5.25;2.78;;;;;;;19.01;47.05;100148.56;5087576;28;20517;-74
2023/04/21 02:26:39;;;;;;;4.63;2.75;;;;;;;19.01;47.19;100148.56;5086944;28;20564;-73
2023/04/21 02:29:08;;;;;;;4.00;2.58;;;;;;;18.98;47.16;100149.72;5087488;28;20140;-75
2023/04/21 02:31:37;;;;;;;4.43;2.92;;;;;;;18.99;47.05;100147.88;5087787;28;20045;-74
2023/04/21 02:34:25;;;;;;;4.97;2.78;;;;;;;18.97;47.08;100152.59;5087643;28;20052;-75
2023/04/21 02:36:54;;;;;;;4.03;2.50;;;;;;;18.96;47.31;100150.88;5090347;28;20509;-74
2023/04/21 02:39:22;;;;;;;4.20;2.83;;;;;;;18.95;47.18;100149.19;5089639;28;20049;-76
2023/04/21 02:41:50;;;;;;;4.57;2.65;;;;;;;18.94;47.25;100158.28;5088431;28;20041;-75
2023/04/21 02:44:18;;;;;;;4.78;2.80;;;;;;;18.92;47.14;100144.94;5088206;28;20091;-75
2023/04/21 02:46:47;;;;;;;5.22;2.83;;;;;;;18.92;47.07;100149.50;5089125;28;20040;-75
2023/04/21 02:49:16;;;;;;;4.18;2.75;;;;;;;18.92;47.27;100154.91;5087948;28;20051;-75
2023/04/21 02:51:44;;;;;;;3.92;2.47;;;;;;;18.90;47.16;100156.88;5087977;28;20048;-75
2023/04/21 02:54:12;;;;;;;4.22;2.72;;;;;;;18.87;47.26;100155.31;5087990;28;20044;-75
2023/04/21 02:56:40;;;;;;;4.35;2.67;;;;;;;18.84;47.12;100153.78;5087763;28;20040;-75
2023/04/21 02:59:10;;;;;;;4.00;2.70;;;;;;;18.86;46.99;100157.16;5088117;28;20056;-75
2023/04/21 03:01:38;;;;;;;4.18;2.63;;;;;;;18.85;46.88;100160.88;5089392;28;20045;-75
2023/04/21 03:04:07;;;;;;;4.20;2.50;;;;;;;18.83;47.20;100162.88;5088913;28;20056;-74
2023/04/21 03:06:36;;;;;;;4.43;2.78;;;;;;;18.82;47.10;100161.19;5087288;28;20481;-74
2023/04/21 03:09:04;;;;;;;3.95;2.55;;;;;;;18.82;47.19;100161.19;5087290;28;20045;-76
2023/04/21 03:11:32;;;;;;;4.18;2.70;;;;;;;18.79;47.20;100161.44;5086925;28;20051;-75
2023/04/21 03:14:00;;;;;;;6.13;2.72;;;;;;;18.80;46.96;100168.56;5087673;28;20109;-75
2023/04/21 03:16:29;;;;;;;4.65;2.70;;;;;;;18.78;47.18;100164.31;5086159;28;20066;-75
2023/04/21 03:18:57;;;;;;;5.00;2.88;;;;;;;18.77;47.10;100170.72;5087412;28;20052;-73
2023/04/21 03:21:27;;;;;;;3.90;2.42;;;;;;;18.76;47.11;100171.72;5087406;28;20067;-75
2023/04/21 03:23:55;;;;;;;4.65;2.80;;;;;;;18.74;47.23;100177.28;5089869;28;20044;-75
2023/04/21 03:26:24;;;;;;;4.00;2.70;;;;;;;18.72;47.24;100165.78;5088009;28;20049;-76
2023/04/21 03:28:52;;;;;;;3.85;2.35;;;;;;;18.73;46.97;100172.03;5086195;28;20044;-76
2023/04/21 03:31:21;;;;;;;4.93;2.80;;;;;;;18.71;47.17;100172.13;5082003;28;20037;-75
2023/04/21 03:33:50;;;;;;;4.47;3.00;;;;;;;18.69;47.12;100179.53;5083660;28;20052;-74
2023/04/21 03:36:18;;;;;;;4.95;2.90;;;;;;;18.67;47.13;100172.59;5082857;28;20091;-73
2023/04/21 03:38:47;;;;;;;5.35;2.95;;;;;;;18.65;47.16;100178.16;5080593;28;20048;-73
2023/04/21 03:41:16;;;;;;;4.60;2.75;;;;;;;18.63;47.06;100173.88;5081365;28;20055;-74
2023/04/21 03:43:45;;;;;;;4.60;3.00;;;;;;;18.64;47.22;100183.66;5081176;28;20044;-74
2023/04/21 03:46:19;;;;;;;5.03;2.92;;;;;;;18.62;47.04;100178.38;5079871;28;20496;-73
2023/04/21 03:48:48;;;;;;;5.15;3.17;;;;;;;18.60;47.24;100178.53;5079338;28;20505;-74
2023/04/21 03:51:16;;;;;;;3.67;2.63;;;;;;;18.58;47.15;100179.69;5080713;28;20076;-74
2023/04/21 03:53:44;;;;;;;5.45;3.00;;;;;;;18.58;47.20;100179.69;5079916;28;20173;-74
2023/04/21 03:56:14;;;;;;;4.70;2.85;;;;;;;18.57;47.21;100184.25;5078866;28;20044;-74
2023/04/21 03:58:42;;;;;;;5.53;3.08;;;;;;;18.57;47.09;100188.78;5078786;28;20044;-74
2023/04/21 04:01:10;;;;;;;5.03;2.90;;;;;;;18.56;47.01;100192.50;5079434;28;20071;-74
2023/04/21 04:03:38;;;;;;;4.80;2.90;;;;;;;18.55;47.16;100198.91;5077869;28;20056;-73
2023/04/21 04:06:07;;;;;;;4.93;3.00;;;;;;;18.52;46.88;100196.47;5078887;28;20114;-74
2023/04/21 04:08:35;;;;;;;4.82;3.00;;;;;;;18.52;47.03;100200.00;5079059;28;20048;-74
2023/04/21 04:11:03;;;;;;;5.90;2.92;;;;;;;18.52;47.25;100205.41;5078060;28;20044;-74
2023/04/21 04:13:35;;;;;;;4.78;2.83;;;;;;;18.52;47.16;100207.25;5075821;28;20068;-73
2023/04/21 04:16:04;;;;;;;5.25;3.13;;;;;;;18.50;46.92;100203.88;5074991;28;20075;-72
2023/04/21 04:18:32;;;;;;;4.43;2.70;;;;;;;18.50;47.20;100206.56;5074451;28;20098;-75
2023/04/21 04:21:06;;;;;;;5.38;2.92;;;;;;;18.47;47.05;100209.56;5074526;28;20593;-75
2023/04/21 04:23:34;;;;;;;5.40;2.83;;;;;;;18.47;47.04;100209.56;5082575;28;20139;-74
2023/04/21 04:26:04;;;;;;;4.60;2.88;;;;;;;18.45;47.15;100211.56;5081213;28;20409;-74
2023/04/21 04:28:34;;;;;;;5.05;2.97;;;;;;;18.45;47.28;100209.72;5073838;28;20052;-74
2023/04/21 04:31:03;;;;;;;4.88;2.80;;;;;;;18.45;46.91;100225.06;5073179;28;20075;-74
2023/04/21 04:33:31;;;;;;;5.03;2.60;;;;;;;18.44;47.09;100226.06;5072961;28;20045;-74
2023/04/21 04:36:00;;;;;;;5.20;2.83;;;;;;;18.43;47.18;100219.81;5072731;28;20080;-74
2023/04/21 04:38:29;;;;;;;5.20;2.83;;;;;;;18.42;47.02;100228.03;5072749;28;20485;-74
2023/04/21 04:41:01;;;;;;;4.95;2.90;;;;;;;18.42;47.18;100225.31;5073293;28;20048;-75
2023/04/21 04:43:32;;;;;;;4.45;2.90;;;;;;;18.40;46.78;100230.03;5073246;28;20087;-74
2023/04/21 04:46:01;;;;;;;5.25;2.95;;;;;;;18.38;46.83;100223.91;5072546;28;20056;-76
2023/04/21 04:48:29;;;;;;;4.72;2.67;;;;;;;18.39;46.98;100229.19;5072728;28;20049;-75
2023/04/21 04:50:58;;;;;;;5.47;3.10;;;;;;;18.39;47.17;100229.19;5072940;28;20044;-75
2023/04/21 04:53:28;;;;;;;4.80;3.00;;;;;;;18.39;47.20;100228.31;5072689;28;20075;-75
2023/04/21 04:55:57;;;;;;;5.00;3.13;;;;;;;18.38;46.99;100221.22;5072538;28;20048;-75
2023/04/21 04:58:25;;;;;;;5.50;2.90;;;;;;;18.37;47.20;100214.13;5072587;28;20135;-75
2023/04/21 05:00:53;;;;;;;4.65;2.80;;;;;;;18.36;47.15;100224.06;5072522;28;20064;-73
2023/04/21 05:03:23;;;;;;;5.90;3.00;;;;;;;18.36;47.13;100223.22;5072933;28;20048;-75
2023/04/21 05:05:53;;;;;;;4.32;2.67;;;;;;;18.36;46.96;100221.38;5073368;28;20041;-74
2023/04/21 05:08:21;;;;;;;6.18;2.80;;;;;;;18.33;47.02;100221.63;5072244;28;20048;-74
2023/04/21 05:10:49;;;;;;;6.28;3.08;;;;;;;18.35;47.27;100224.22;5072527;28;20052;-74
2023/04/21 05:13:17;;;;;;;5.72;3.10;;;;;;;18.34;46.73;100220.66;5072777;28;20044;-75
2023/04/21 05:15:45;;;;;;;4.72;2.80;;;;;;;18.33;47.10;100229.72;5072265;28;20502;-74
2023/04/21 05:18:13;;;;;;;5.75;3.00;;;;;;;18.34;46.84;100227.91;5072200;28;20140;-74
2023/04/21 05:20:43;;;;;;;4.93;2.80;;;;;;;18.33;46.89;100228.88;5072236;28;20056;-74
2023/04/21 05:23:11;;;;;;;4.60;2.97;;;;;;;18.32;47.13;100225.34;5071932;28;20793;-73
2023/04/21 05:25:39;;;;;;;5.22;3.00;;;;;;;18.31;46.87;100227.19;5072199;28;20076;-73
2023/04/21 05:28:08;;;;;;;4.70;2.47;;;;;;;18.31;47.10;100232.59;5071998;28;20132;-74
2023/04/21 05:30:38;;;;;;;5.25;2.90;;;;;;;18.29;46.94;100229.19;5071506;28;20095;-73
2023/04/21 05:33:06;;;;;;;5.15;2.40;;;;;;;18.30;46.98;100227.34;5071775;28;20454;-72
2023/04/21 05:35:34;;;;;;;5.95;3.25;;;;;;;18.30;47.07;100230.03;5071792;28;20053;-73
2023/04/21 05:38:06;;;;;;;4.40;2.55;;;;;;;18.31;47.19;100232.59;5071819;28;20041;-72
2023/04/21 05:40:34;;;;;;;5.20;2.67;;;;;;;18.30;47.07;100240.81;5072076;28;20058;-75
2023/04/21 05:43:03;;;;;;;3.97;2.67;;;;;;;18.28;47.11;100232.88;5071720;28;20091;-73
2023/04/21 05:45:31;;;;;;;4.68;2.97;;;;;;;18.30;47.02;100235.44;5071794;28;20044;-73
2023/04/21 05:47:59;;;;;;;6.20;3.00;;;;;;;18.28;46.85;100232.03;5071890;28;20405;-74
2023/04/21 05:50:32;;;;;;;4.93;2.83;;;;;;;18.29;47.12;100231.88;5071872;28;20044;-73
2023/04/21 05:53:01;;;;;;;;;;;;;;;18.28;47.04;100227.47;5071691;28;20070;-73
2023/04/21 05:55:30;;;;;;;5.40;2.53;;;;;;;18.28;47.10;100227.47;5071545;28;19936;-72
2023/04/21 05:57:58;;;;;;;4.80;2.95;;;;;;;18.28;46.91;100230.19;5074951;28;20052;-72
2023/04/21 06:00:26;;;;;;;5.68;2.83;;;;;;;18.27;46.99;100239.28;5075277;28;20040;-72
2023/04/21 06:02:54;;;;;;;4.30;2.80;;;;;;;18.29;47.36;100228.31;5075384;28;20048;-72
2023/04/21 06:05:23;;;;;;;5.40;3.00;;;;;;;18.33;47.39;100234.28;5075254;28;20444;-71
2023/04/21 06:07:51;;;;;;;5.50;2.70;;;;;;;18.34;47.47;100228.78;5075694;28;20052;-72
2023/04/21 06:10:20;;;;;;;5.25;2.67;;;;;;;18.44;47.65;100231.47;5075221;28;20047;-72
2023/04/21 06:12:50;;;;;;;4.68;2.70;;;;;;;18.55;47.57;100234.00;5074828;28;20055;-73
2023/04/21 06:15:18;;;;;;;6.05;2.60;;;;;;;18.64;47.68;100238.56;5074452;28;20451;-73
2023/04/21 06:17:46;;;;;;;4.15;2.28;;;;;;;18.72;47.34;100241.41;5074902;28;20040;-73
2023/04/21 06:20:16;;;;;;;4.35;2.72;;;;;;;18.80;47.56;100232.56;5074826;28;20084;-73
2023/04/21 06:22:44;;;;;;;4.95;2.63;;;;;;;18.86;47.40;100240.09;5074757;28;20049;-74
2023/04/21 06:25:12;;;;;;;4.82;2.63;;;;;;;18.90;47.13;100238.78;5074722;28;20067;-75
2023/04/21 06:27:40;;;;;;;4.07;2.60;;;;;;;18.91;47.27;100234.25;5074478;28;20478;-71
2023/04/21 06:30:10;;;;;;;4.57;2.40;;;;;;;18.95;47.35;100235.66;5074793;28;20090;-76
2023/04/21 06:32:39;;;;;;;4.50;2.72;;;;;;;18.96;47.15;100232.81;5078915;28;20044;-77
2023/04/21 06:35:08;;;;;;;4.95;2.63;;;;;;;18.98;47.10;100229.97;5074236;28;20503;-75
2023/04/21 06:37:36;;;;;;;4.75;2.90;;;;;;;18.98;47.20;100230.81;5074346;28;20492;-75
2023/04/21 06:40:05;;;;;;;4.00;2.50;;;;;;;18.99;47.06;100226.25;5074505;28;20051;-75
2023/04/21 06:42:34;;;;;;;4.70;2.10;;;;;;;18.97;47.23;100225.56;5075264;28;20056;-74
2023/04/21 06:45:02;;;;;;;5.45;2.60;;;;;;;19.00;47.22;100233.38;5074994;28;20509;-76
2023/04/21 06:47:32;;;;;;;6.05;2.60;;;;;;;19.00;47.05;100230.66;5074732;28;20037;-77
2023/04/21 06:50:00;;;;;;;7.00;2.80;;;;;;;19.00;47.42;100227.97;5074862;28;20121;-77
2023/04/21 06:52:28;;;;;;;5.40;2.67;;;;;;;18.99;47.33;100228.97;5075203;28;20051;-75
2023/04/21 06:54:56;;;;;;;4.15;2.40;;;;;;;19.00;47.41;100227.97;5075030;28;20493;-77
2023/04/21 06:57:24;;;;;;;4.65;2.53;;;;;;;19.01;47.44;100229.66;5074037;28;20048;-75
2023/04/21 06:59:53;;;;;;;3.72;2.33;;;;;;;19.00;47.17;100227.97;5073160;28;20119;-79
2023/04/21 07:02:21;;;;;;;4.53;2.30;;;;;;;18.99;47.01;100224.41;5061859;28;20045;-72
2023/04/21 07:04:50;;;;;;;5.18;2.58;;;;;;;19.00;47.21;100227.97;5067334;28;20634;-76
2023/04/21 07:07:19;;;;;;;4.88;2.45;;;;;;;18.99;47.68;100221.69;5074462;28;20053;-76
2023/04/21 07:09:47;;;;;;;5.22;3.15;;;;;;;18.99;47.37;100223.56;5073400;28;20049;-75
2023/04/21 07:12:15;;;;;;;4.63;2.67;;;;;;;18.98;47.42;100221.84;5074590;28;20047;-74
2023/04/21 07:14:44;;;;;;;4.57;2.65;;;;;;;18.97;47.63;100225.56;5074174;28;20151;-74
2023/04/21 07:17:12;;;;;;;5.10;2.55;;;;;;;18.97;47.51;100220.16;5073574;28;20079;-75
2023/04/21 07:19:43;;;;;;;4.35;2.60;;;;;;;18.99;47.58;100215.44;5074371;28;20044;-75
2023/04/21 07:22:12;;;;;;;5.35;2.63;;;;;;;18.98;47.22;100224.56;5074462;28;20072;-75
2023/04/21 07:24:40;;;;;;;3.97;2.30;;;;;;;18.99;47.59;100226.25;5075867;28;20052;-75
2023/04/21 07:27:09;;;;;;;4.18;2.40;;;;;;;18.99;47.17;100220.84;5076072;28;20082;-75
2023/04/21 07:29:37;;;;;;;4.30;2.22;;;;;;;18.98;47.17;100213.75;5074353;28;20045;-75
2023/04/21 07:32:05;;;;;;;5.15;2.60;;;;;;;18.96;47.34;100210.34;5073742;28;20094;-73
2023/04/21 07:34:33;;;;;;;4.82;2.42;;;;;;;18.96;47.11;100216.59;5073597;28;20136;-75
2023/04/21 07:37:01;;;;;;;4.97;3.00;;;;;;;18.97;47.22;100218.31;5074104;28;20079;-76
2023/04/21 07:39:31;;;;;;;3.53;2.30;;;;;;;18.98;47.10;100219.16;5073755;28;20554;-75
2023/04/21 07:41:59;;;;;;;3.97;2.30;;;;;;;18.96;47.49;100213.91;5073832;28;20417;-75
2023/04/21 07:44:28;;;;;;;5.68;2.63;;;;;;;18.98;47.38;100221.84;5073561;28;20072;-76
2023/04/21 07:46:56;;;;;;;3.78;2.30;;;;;;;18.96;47.46;100218.44;5073648;28;20044;-75
2023/04/21 07:49:24;;;;;;;4.78;2.45;;;;;;;18.96;47.45;100215.75;5073186;28;20051;-75
2023/04/21 07:51:52;;;;;;;5.07;2.53;;;;;;;18.97;47.15;100217.44;5072957;28;20051;-75
2023/04/21 07:54:21;;;;;;;5.47;2.65;;;;;;;18.98;47.33;100224.56;5072705;28;20535;-75
2023/04/21 07:56:50;;;;;;;4.05;2.47;;;;;;;18.97;47.25;100222.84;5072832;28;20098;-77
2023/04/21 07:59:18;;;;;;;4.03;2.50;;;;;;;18.98;47.44;100224.56;5073060;28;20044;-74
2023/04/21 08:01:47;;;;;;;4.43;2.40;;;;;;;18.97;47.22;100217.44;5072752;28;20052;-75
2023/04/21 08:04:15;;;;;;;4.78;2.53;;;;;;;18.97;47.44;100222.84;5072863;28;20056;-75
2023/04/21 08:06:44;;;;;;;4.45;2.00;;;;;;;18.95;47.18;100206.78;5072709;28;20048;-74
2023/04/21 08:09:12;;;;;;;3.90;2.50;;;;;;;18.97;47.11;100212.03;5072595;28;20080;-75
2023/04/21 08:11:40;;;;;;;4.75;2.30;;;;;;;18.97;47.21;100209.34;5072347;28;20055;-75
2023/04/21 08:14:10;;;;;;;4.47;2.28;;;;;;;18.97;47.09;100209.34;5072240;28;20044;-75
2023/04/21 08:16:40;;;;;;;4.18;2.58;;;;;;;18.97;47.04;100212.91;5072419;28;20053;-75
2023/04/21 08:19:10;;;;;;;4.20;2.50;;;;;;;18.98;47.23;100209.19;5072431;28;20448;-75
2023/04/21 08:21:39;;;;;;;3.50;2.13;;;;;;;18.98;47.37;100206.50;5071453;28;20070;-76
2023/04/21 08:24:07;;;;;;;5.18;2.30;;;;;;;18.99;47.23;100212.75;5072248;28;20606;-74
2023/04/21 08:26:35;;;;;;;4.40;2.20;;;;;;;18.99;47.09;100219.00;5072244;28;20048;-76
2023/04/21 08:29:05;;;;;;;5.60;2.55;;;;;;;19.00;47.14;100214.44;5071938;28;20053;-75
2023/04/21 08:31:35;;;;;;;5.65;2.63;;;;;;;18.98;47.09;100202.94;5072060;28;20056;-74
2023/04/21 08:34:04;;;;;;;4.75;2.40;;;;;;;19.00;47.06;100211.75;5071995;28;20094;-73
2023/04/21 08:36:32;;;;;;;5.85;2.75;;;;;;;19.00;47.51;100203.63;5071846;28;20078;-74
2023/04/21 08:39:00;;;;;;;4.20;2.30;;;;;;;19.01;47.45;100214.31;5071946;28;20079;-73
2023/04/21 08:41:28;;;;;;;4.47;2.33;;;;;;;19.03;47.41;100211.47;5071579;28;20044;-74
2023/04/21 08:43:57;;;;;;;4.28;2.35;;;;;;;19.02;47.23;100209.78;5071700;28;20477;-74
2023/04/21 08:46:27;;;;;;;4.20;2.47;;;;;;;19.03;47.50;100206.91;5072176;28;20094;-74
2023/04/21 08:48:58;;;;;;;5.07;2.53;;;;;;;19.02;47.37;100198.97;5072808;28;20075;-75
2023/04/21 08:51:29;;;;;;;4.13;2.20;;;;;;;19.04;47.12;100203.22;5072079;28;20052;-75
2023/04/21 08:53:57;;;;;;;5.78;2.50;;;;;;;19.03;47.51;100187.13;5071731;28;20053;-75
2023/04/21 08:56:26;;;;;;;4.70;2.22;;;;;;;19.04;47.47;100199.66;5071695;28;20462;-73
2023/04/21 08:58:54;;;;;;;4.53;2.20;;;;;;;19.05;47.63;100194.09;5071705;28;20499;-75
2023/04/21 09:01:22;;;;;;;3.85;2.15;;;;;;;19.05;47.41;100190.53;5071679;28;20055;-76
2023/04/21 09:03:51;;;;;;;5.07;2.33;;;;;;;19.07;47.34;100202.03;5071717;28;20044;-74
2023/04/21 09:06:20;;;;;;;4.47;2.30;;;;;;;19.08;47.61;100193.78;5071667;28;20040;-73
2023/04/21 09:08:55;;;;;;;6.22;2.55;;;;;;;19.07;47.56;100191.22;5071982;28;20124;-75
2023/04/21 09:11:24;;;;;;;3.38;2.05;;;;;;;19.09;47.21;100191.94;5071986;28;20048;-75
2023/04/21 09:13:57;;;;;;;4.25;2.08;;;;;;;19.10;47.56;100186.38;5071655;28;20045;-75
2023/04/21 09:16:31;;;;;;;4.82;2.40;;;;;;;19.12;47.38;100197.06;5071531;28;20052;-75
2023/04/21 09:19:00;;;;;;;4.63;2.50;;;;;;;19.14;47.34;100186.94;5071341;28;20091;-75
2023/04/21 09:21:31;;;;;;;3.83;2.33;;;;;;;19.13;47.25;100185.25;5071462;28;20052;-75
2023/04/21 09:24:05;;;;;;;3.95;2.20;;;;;;;19.17;47.35;100192.03;5071558;28;20095;-75
2023/04/21 09:26:33;;;;;;;3.35;2.13;;;;;;;19.17;47.63;100184.78;5071752;28;20052;-76
2023/04/21 09:29:06;;;;;;;5.07;2.13;;;;;;;19.20;47.39;100180.06;5071158;28;20044;-74
2023/04/21 09:31:35;;;;;;;3.80;2.30;;;;;;;19.21;47.64;100173.69;5072582;28;20396;-75
2023/04/21 09:34:18;;;;;;;5.30;2.30;;;;;;;19.22;47.62;100170.84;5075223;28;20052;-75
2023/04/21 09:36:48;;;;;;;4.25;2.22;;;;;;;19.22;47.42;100173.53;5074971;28;20044;-75
2023/04/21 09:39:16;;;;;;;3.75;2.03;;;;;;;19.24;47.27;100168.81;5075166;28;20090;-75
2023/04/21 09:42:04;;;;;;;4.18;2.38;;;;;;;19.27;47.31;100170.38;5074858;28;20127;-74
2023/04/21 09:44:33;;;;;;;4.97;2.30;;;;;;;19.27;47.58;100163.09;5074881;28;20603;-74
2023/04/21 09:47:20;;;;;;;4.75;2.20;;;;;;;19.26;47.27;100156.00;5074842;28;20049;-74
2023/04/21 09:49:52;;;;;;;4.68;2.42;;;;;;;19.32;47.35;100160.81;5075085;28;20052;-75
2023/04/21 09:52:22;;;;;;;4.57;2.40;;;;;;;19.34;47.71;100164.22;5074570;28;20051;-73
2023/04/21 09:54:56;;;;;;;4.50;2.35;;;;;;;19.34;47.63;100150.69;5074964;28;20131;-75
2023/04/21 09:57:26;;;;;;;4.72;2.35;;;;;;;19.37;47.43;100147.69;5074595;28;20099;-74
2023/04/21 09:59:59;;;;;;;4.07;2.28;;;;;;;19.39;47.84;100152.94;5074580;28;20041;-75
2023/04/21 10:02:30;;;;;;;4.60;2.22;;;;;;;19.42;47.72;100150.78;5074266;28;20048;-75
2023/04/21 10:04:59;;;;;;;3.95;2.17;;;;;;;19.43;47.63;100160.59;5074393;28;20045;-73
2023/04/21 10:07:29;;;;;;;4.78;2.20;;;;;;;19.44;47.71;100151.50;5074675;28;20068;-76
2023/04/21 10:10:00;;;;;;;3.67;2.17;;;;;;;19.48;47.69;100148.47;5074466;28;20059;-74
2023/04/21 10:12:29;;;;;;;3.97;2.17;;;;;;;19.48;47.90;100146.63;5074536;28;20444;-75
2023/04/21 10:14:57;;;;;;;4.95;2.65;;;;;;;19.51;47.81;100140.06;5074309;28;20055;-74
2023/04/21 10:17:26;;;;;;;4.88;2.58;;;;;;;19.53;47.93;100138.91;5073850;28;20098;-75
2023/04/21 10:19:56;;;;;;;4.25;2.30;;;;;;;19.57;47.88;100134.91;5073890;28;20051;-77
2023/04/21 10:22:30;;;;;;;4.25;2.47;;;;;;;19.58;48.06;100136.63;5074082;28;20127;-72
2023/04/21 10:25:00;;;;;;;5.10;2.40;;;;;;;19.62;47.94;100134.47;5074066;28;20095;-76
2023/04/21 10:27:32;;;;;;;3.80;2.40;;;;;;;19.64;48.02;100135.16;5074048;28;20110;-74
2023/04/21 10:30:01;;;;;;;5.63;2.47;;;;;;;19.65;48.03;100126.03;5073823;28;20390;-76
2023/04/21 10:32:41;;;;;;;3.97;2.30;;;;;;;19.69;48.05;100138.28;5073850;28;20045;-75
2023/04/21 10:35:10;;;;;;;4.43;2.50;;;;;;;19.71;48.12;100134.41;5073955;28;20044;-76
2023/04/21 10:37:41;;;;;;;4.05;2.30;;;;;;;19.72;48.19;100129.84;5074098;28;20053;-77
2023/04/21 10:40:35;;;;;;;4.13;2.30;;;;;;;19.75;48.40;100132.22;5074075;28;20101;-76
2023/04/21 10:43:06;;;;;;;3.72;2.00;;;;;;;19.77;48.37;100121.25;5073047;28;20049;-76
2023/04/21 10:45:34;;;;;;;5.68;2.63;;;;;;;19.80;48.52;100124.50;5073780;28;20072;-75
2023/04/21 10:48:02;;;;;;;4.28;2.47;;;;;;;19.81;48.64;100123.50;5073503;28;20048;-75
2023/04/21 10:50:32;;;;;;;4.05;2.60;;;;;;;19.82;48.19;100117.09;5073604;28;20059;-74
2023/04/21 10:53:10;;;;;;;4.78;2.33;;;;;;;19.86;48.49;100117.63;5073321;28;20140;-74
2023/04/21 10:55:41;;;;;;;4.28;2.28;;;;;;;19.86;48.45;100112.19;5073373;28;20493;-75
2023/04/21 10:58:10;;;;;;;4.65;2.30;;;;;;;19.91;48.36;100109.88;5073424;28;20083;-73
2023/04/21 11:00:38;;;;;;;4.28;2.30;;;;;;;19.93;48.46;100106.00;5073531;28;20048;-74
2023/04/21 11:03:07;;;;;;;3.85;2.35;;;;;;;19.94;48.19;100105.00;5073329;28;20143;-72
2023/04/21 11:05:38;;;;;;;4.70;2.45;;;;;;;19.96;48.68;100108.41;5073287;28;20048;-75
2023/04/21 11:08:13;;;;;;;5.47;2.70;;;;;;;19.98;48.84;100105.56;5073536;28;20041;-74
2023/04/21 11:10:53;;;;;;;4.78;2.50;;;;;;;19.99;48.80;100107.25;5073428;28;20045;-75
2023/04/21 11:13:22;;;;;;;4.35;2.20;;;;;;;20.02;48.28;100110.50;5073464;28;20058;-75
2023/04/21 11:16:01;;;;;;;4.75;2.35;;;;;;;20.04;48.47;100104.06;5073156;28;20076;-74
2023/04/21 11:18:34;;;;;;;4.55;2.50;;;;;;;20.02;48.35;100102.38;5073342;28;20053;-75
2023/04/21 11:21:16;;;;;;;4.28;2.58;;;;;;;20.05;48.50;100105.75;5073185;28;20409;-75
2023/04/21 11:23:55;;;;;;;3.70;2.35;;;;;;;20.04;48.40;100101.34;5072994;28;20094;-75
2023/04/21 11:26:31;;;;;;;4.13;2.28;;;;;;;20.05;48.26;100101.19;5073259;28;20060;-75
2023/04/21 11:29:05;;;;;;;4.22;2.33;;;;;;;20.04;48.32;100093.25;5073179;28;20133;-76
2023/04/21 11:31:35;;;;;;;4.10;2.28;;;;;;;20.07;48.27;100098.34;5073160;28;20053;-76
2023/04/21 11:34:07;;;;;;;4.53;2.38;;;;;;;20.08;48.12;100094.66;5073042;28;20048;-77